Terminal Aerodrome Forecast
Issued by NWS

Home | Current Version | Previous Version | Text Only | Print | Product List | Glossary On
Versions: 1 2 3 4 5 6 7 8 9 10 11 12 13
000
FTAK31 PANC 051959 AAA
TAFADL
TAF AMD
PADL 051959Z 0520/0618 36015KT 5SM -SN SCT015 OVC028
      TEMPO 0520/0522 2SM -SN BLSN BKN015
     FM052200 36014G22KT 2SM -SN BLSN BKN012
     FM060200 34012G20KT 5SM -SN BLSN BKN020
     FM060800 33010KT P6SM VCSH SCT020 OVC035=

USA.gov is the U.S. government's official web portal to all federal, state and local government web resources and services.